sensor_id;sensor_type;location;lat;lon;timestamp;P1;durP1;ratioP1;P2;durP2;ratioP2
69953;SDS011;57276;51.364;12.376;2023-03-20T00:03:26;5.25;;;2.60;;
69953;SDS011;57276;51.364;12.376;2023-03-20T00:09:28;5.50;;;2.90;;
69953;SDS011;57276;51.364;12.376;2023-03-20T00:15:30;5.78;;;3.03;;
69953;SDS011;57276;51.364;12.376;2023-03-20T00:21:32;5.77;;;3.03;;
69953;SDS011;57276;51.364;12.376;2023-03-20T00:27:34;5.30;;;2.70;;
69953;SDS011;57276;51.364;12.376;2023-03-20T00:33:36;5.63;;;2.80;;
69953;SDS011;57276;51.364;12.376;2023-03-20T00:39:38;5.60;;;3.07;;
69953;SDS011;57276;51.364;12.376;2023-03-20T00:45:40;6.57;;;3.05;;
69953;SDS011;57276;51.364;12.376;2023-03-20T00:51:44;5.80;;;2.90;;
69953;SDS011;57276;51.364;12.376;2023-03-20T00:57:47;7.20;;;3.40;;
69953;SDS011;57276;51.364;12.376;2023-03-20T01:03:49;6.70;;;3.72;;
69953;SDS011;57276;51.364;12.376;2023-03-20T01:09:51;7.67;;;3.43;;
69953;SDS011;57276;51.364;12.376;2023-03-20T01:15:54;6.90;;;3.13;;
69953;SDS011;57276;51.364;12.376;2023-03-20T01:21:56;6.30;;;3.43;;
69953;SDS011;57276;51.364;12.376;2023-03-20T01:27:58;5.88;;;3.40;;
69953;SDS011;57276;51.364;12.376;2023-03-20T01:34:01;6.47;;;3.70;;
69953;SDS011;57276;51.364;12.376;2023-03-20T01:40:03;5.77;;;3.40;;
69953;SDS011;57276;51.364;12.376;2023-03-20T01:52:13;6.80;;;3.53;;
69953;SDS011;57276;51.364;12.376;2023-03-20T01:58:19;7.40;;;3.72;;
69953;SDS011;57276;51.364;12.376;2023-03-20T02:04:26;6.40;;;3.72;;
69953;SDS011;57276;51.364;12.376;2023-03-20T02:10:36;6.80;;;3.97;;
69953;SDS011;57276;51.364;12.376;2023-03-20T02:16:49;7.15;;;4.07;;
69953;SDS011;57276;51.364;12.376;2023-03-20T02:23:11;6.17;;;3.77;;
69953;SDS011;57276;51.364;12.376;2023-03-20T02:29:36;10.40;;;4.10;;
69953;SDS011;57276;51.364;12.376;2023-03-20T02:42:09;6.20;;;3.67;;
69953;SDS011;57276;51.364;12.376;2023-03-20T02:48:19;6.32;;;3.90;;
69953;SDS011;57276;51.364;12.376;2023-03-20T02:54:38;6.10;;;3.80;;
69953;SDS011;57276;51.364;12.376;2023-03-20T03:00:44;6.70;;;4.18;;
69953;SDS011;57276;51.364;12.376;2023-03-20T03:06:50;6.95;;;4.25;;
69953;SDS011;57276;51.364;12.376;2023-03-20T03:12:56;7.23;;;4.23;;
69953;SDS011;57276;51.364;12.376;2023-03-20T03:19:02;8.80;;;4.55;;
69953;SDS011;57276;51.364;12.376;2023-03-20T03:25:08;7.83;;;4.30;;
69953;SDS011;57276;51.364;12.376;2023-03-20T03:31:11;7.18;;;4.40;;
69953;SDS011;57276;51.364;12.376;2023-03-20T03:37:16;7.07;;;4.60;;
69953;SDS011;57276;51.364;12.376;2023-03-20T03:49:25;7.15;;;4.47;;
69953;SDS011;57276;51.364;12.376;2023-03-20T03:55:28;7.70;;;4.63;;
69953;SDS011;57276;51.364;12.376;2023-03-20T04:01:38;7.75;;;5.10;;
69953;SDS011;57276;51.364;12.376;2023-03-20T04:07:52;8.02;;;4.65;;
69953;SDS011;57276;51.364;12.376;2023-03-20T04:14:21;7.97;;;5.37;;
69953;SDS011;57276;51.364;12.376;2023-03-20T04:20:23;9.20;;;5.53;;
69953;SDS011;57276;51.364;12.376;2023-03-20T04:26:24;8.40;;;5.70;;
69953;SDS011;57276;51.364;12.376;2023-03-20T04:32:26;8.88;;;5.78;;
69953;SDS011;57276;51.364;12.376;2023-03-20T04:38:48;9.93;;;5.68;;
69953;SDS011;57276;51.364;12.376;2023-03-20T04:44:50;11.50;;;5.93;;
69953;SDS011;57276;51.364;12.376;2023-03-20T04:50:52;9.43;;;5.93;;
69953;SDS011;57276;51.364;12.376;2023-03-20T04:56:59;10.63;;;5.83;;
69953;SDS011;57276;51.364;12.376;2023-03-20T05:03:02;8.95;;;6.10;;
69953;SDS011;57276;51.364;12.376;2023-03-20T05:09:04;10.25;;;6.13;;
69953;SDS011;57276;51.364;12.376;2023-03-20T05:15:07;11.37;;;5.83;;
69953;SDS011;57276;51.364;12.376;2023-03-20T05:21:23;9.52;;;5.88;;
69953;SDS011;57276;51.364;12.376;2023-03-20T05:27:36;10.43;;;5.60;;
69953;SDS011;57276;51.364;12.376;2023-03-20T05:33:56;9.63;;;5.60;;
69953;SDS011;57276;51.364;12.376;2023-03-20T05:40:13;11.50;;;5.45;;
69953;SDS011;57276;51.364;12.376;2023-03-20T05:46:27;8.53;;;5.60;;
69953;SDS011;57276;51.364;12.376;2023-03-20T05:52:48;8.63;;;5.75;;
69953;SDS011;57276;51.364;12.376;2023-03-20T05:59:13;9.67;;;5.50;;
69953;SDS011;57276;51.364;12.376;2023-03-20T06:05:41;9.57;;;5.75;;
69953;SDS011;57276;51.364;12.376;2023-03-20T06:11:42;8.85;;;5.28;;
69953;SDS011;57276;51.364;12.376;2023-03-20T06:17:45;9.40;;;5.47;;
69953;SDS011;57276;51.364;12.376;2023-03-20T06:23:48;9.23;;;5.25;;
69953;SDS011;57276;51.364;12.376;2023-03-20T06:29:50;9.07;;;5.23;;
69953;SDS011;57276;51.364;12.376;2023-03-20T06:36:03;8.13;;;4.95;;
69953;SDS011;57276;51.364;12.376;2023-03-20T06:42:06;9.48;;;5.55;;
69953;SDS011;57276;51.364;12.376;2023-03-20T06:48:07;9.40;;;5.30;;
69953;SDS011;57276;51.364;12.376;2023-03-20T06:54:09;10.52;;;5.80;;
69953;SDS011;57276;51.364;12.376;2023-03-20T07:00:11;12.00;;;5.73;;
69953;SDS011;57276;51.364;12.376;2023-03-20T07:06:13;9.43;;;5.43;;
69953;SDS011;57276;51.364;12.376;2023-03-20T07:12:16;11.40;;;6.45;;
69953;SDS011;57276;51.364;12.376;2023-03-20T07:18:20;12.67;;;6.80;;
69953;SDS011;57276;51.364;12.376;2023-03-20T07:24:23;17.35;;;8.15;;
69953;SDS011;57276;51.364;12.376;2023-03-20T07:30:25;22.57;;;9.90;;
69953;SDS011;57276;51.364;12.376;2023-03-20T07:36:28;22.95;;;10.55;;
69953;SDS011;57276;51.364;12.376;2023-03-20T07:42:29;24.52;;;11.02;;
69953;SDS011;57276;51.364;12.376;2023-03-20T07:48:34;26.87;;;12.10;;
69953;SDS011;57276;51.364;12.376;2023-03-20T07:54:36;29.73;;;13.40;;
69953;SDS011;57276;51.364;12.376;2023-03-20T08:00:38;28.93;;;12.10;;
69953;SDS011;57276;51.364;12.376;2023-03-20T08:06:39;30.38;;;13.75;;
69953;SDS011;57276;51.364;12.376;2023-03-20T08:12:42;31.73;;;13.65;;
69953;SDS011;57276;51.364;12.376;2023-03-20T08:18:43;31.47;;;14.07;;
69953;SDS011;57276;51.364;12.376;2023-03-20T08:24:45;36.00;;;14.18;;
69953;SDS011;57276;51.364;12.376;2023-03-20T08:30:47;36.57;;;15.17;;
69953;SDS011;57276;51.364;12.376;2023-03-20T08:36:48;44.53;;;17.75;;
69953;SDS011;57276;51.364;12.376;2023-03-20T08:42:50;31.77;;;14.77;;
69953;SDS011;57276;51.364;12.376;2023-03-20T08:48:51;38.07;;;15.43;;
69953;SDS011;57276;51.364;12.376;2023-03-20T08:54:52;34.22;;;15.20;;
69953;SDS011;57276;51.364;12.376;2023-03-20T09:00:54;34.77;;;15.77;;
69953;SDS011;57276;51.364;12.376;2023-03-20T09:06:55;37.40;;;16.15;;
69953;SDS011;57276;51.364;12.376;2023-03-20T09:12:57;42.35;;;16.77;;
69953;SDS011;57276;51.364;12.376;2023-03-20T09:18:58;39.63;;;16.93;;
69953;SDS011;57276;51.364;12.376;2023-03-20T09:25:01;37.97;;;16.20;;
69953;SDS011;57276;51.364;12.376;2023-03-20T09:31:03;38.97;;;15.73;;
69953;SDS011;57276;51.364;12.376;2023-03-20T09:37:05;40.05;;;14.95;;
69953;SDS011;57276;51.364;12.376;2023-03-20T09:43:23;39.08;;;16.70;;
69953;SDS011;57276;51.364;12.376;2023-03-20T09:49:32;39.17;;;15.77;;
69953;SDS011;57276;51.364;12.376;2023-03-20T09:55:36;40.60;;;16.52;;
69953;SDS011;57276;51.364;12.376;2023-03-20T10:07:41;40.97;;;16.77;;
69953;SDS011;57276;51.364;12.376;2023-03-20T10:19:55;41.10;;;16.83;;
69953;SDS011;57276;51.364;12.376;2023-03-20T10:25:59;43.08;;;16.13;;
69953;SDS011;57276;51.364;12.376;2023-03-20T10:32:05;42.90;;;18.13;;
69953;SDS011;57276;51.364;12.376;2023-03-20T10:38:14;46.28;;;19.00;;
69953;SDS011;57276;51.364;12.376;2023-03-20T10:44:20;40.50;;;17.15;;
69953;SDS011;57276;51.364;12.376;2023-03-20T10:50:28;40.47;;;16.17;;
69953;SDS011;57276;51.364;12.376;2023-03-20T10:56:32;39.83;;;16.27;;
69953;SDS011;57276;51.364;12.376;2023-03-20T11:02:36;41.77;;;16.33;;
69953;SDS011;57276;51.364;12.376;2023-03-20T11:08:41;45.63;;;17.40;;
69953;SDS011;57276;51.364;12.376;2023-03-20T11:14:43;50.80;;;18.67;;
69953;SDS011;57276;51.364;12.376;2023-03-20T11:20:46;46.63;;;18.70;;
69953;SDS011;57276;51.364;12.376;2023-03-20T11:26:49;43.22;;;17.95;;
69953;SDS011;57276;51.364;12.376;2023-03-20T11:32:53;50.80;;;18.30;;
69953;SDS011;57276;51.364;12.376;2023-03-20T11:39:05;50.47;;;19.58;;
69953;SDS011;57276;51.364;12.376;2023-03-20T11:45:16;50.63;;;18.27;;
69953;SDS011;57276;51.364;12.376;2023-03-20T11:51:19;50.57;;;19.70;;
69953;SDS011;57276;51.364;12.376;2023-03-20T11:57:31;50.65;;;19.15;;
69953;SDS011;57276;51.364;12.376;2023-03-20T12:03:41;48.07;;;18.00;;
69953;SDS011;57276;51.364;12.376;2023-03-20T12:09:45;49.35;;;18.25;;
69953;SDS011;57276;51.364;12.376;2023-03-20T12:15:51;52.85;;;19.60;;
69953;SDS011;57276;51.364;12.376;2023-03-20T12:22:00;46.33;;;18.20;;
69953;SDS011;57276;51.364;12.376;2023-03-20T12:28:06;44.92;;;17.42;;
69953;SDS011;57276;51.364;12.376;2023-03-20T12:34:13;50.30;;;18.50;;
69953;SDS011;57276;51.364;12.376;2023-03-20T12:40:16;42.78;;;17.27;;
69953;SDS011;57276;51.364;12.376;2023-03-20T12:52:42;40.83;;;16.10;;
69953;SDS011;57276;51.364;12.376;2023-03-20T12:58:50;39.58;;;15.50;;
69953;SDS011;57276;51.364;12.376;2023-03-20T13:10:56;34.25;;;14.38;;
69953;SDS011;57276;51.364;12.376;2023-03-20T13:17:13;34.58;;;14.05;;
69953;SDS011;57276;51.364;12.376;2023-03-20T13:23:30;35.97;;;14.13;;
69953;SDS011;57276;51.364;12.376;2023-03-20T13:41:42;28.83;;;12.73;;
69953;SDS011;57276;51.364;12.376;2023-03-20T13:47:45;23.38;;;10.30;;
69953;SDS011;57276;51.364;12.376;2023-03-20T13:59:57;19.30;;;9.27;;
69953;SDS011;57276;51.364;12.376;2023-03-20T14:06:00;19.60;;;9.30;;
69953;SDS011;57276;51.364;12.376;2023-03-20T14:18:03;22.17;;;10.80;;
69953;SDS011;57276;51.364;12.376;2023-03-20T14:24:06;23.67;;;10.90;;
69953;SDS011;57276;51.364;12.376;2023-03-20T14:30:33;25.55;;;11.35;;
69953;SDS011;57276;51.364;12.376;2023-03-20T14:36:49;23.73;;;11.40;;
69953;SDS011;57276;51.364;12.376;2023-03-20T14:48:55;20.20;;;10.57;;
69953;SDS011;57276;51.364;12.376;2023-03-20T14:55:12;21.37;;;9.20;;
69953;SDS011;57276;51.364;12.376;2023-03-20T15:01:16;22.20;;;10.05;;
69953;SDS011;57276;51.364;12.376;2023-03-20T15:13:21;20.52;;;9.27;;
69953;SDS011;57276;51.364;12.376;2023-03-20T15:19:25;20.05;;;9.00;;
69953;SDS011;57276;51.364;12.376;2023-03-20T15:25:35;18.87;;;8.73;;
69953;SDS011;57276;51.364;12.376;2023-03-20T15:31:37;17.20;;;8.35;;
69953;SDS011;57276;51.364;12.376;2023-03-20T15:37:40;21.03;;;9.73;;
69953;SDS011;57276;51.364;12.376;2023-03-20T15:43:42;19.85;;;9.50;;
69953;SDS011;57276;51.364;12.376;2023-03-20T15:49:47;21.33;;;9.52;;
69953;SDS011;57276;51.364;12.376;2023-03-20T15:55:49;20.97;;;9.80;;
69953;SDS011;57276;51.364;12.376;2023-03-20T16:01:53;19.85;;;9.57;;
69953;SDS011;57276;51.364;12.376;2023-03-20T16:07:56;17.83;;;8.90;;
69953;SDS011;57276;51.364;12.376;2023-03-20T16:13:57;14.98;;;7.20;;
69953;SDS011;57276;51.364;12.376;2023-03-20T16:19:59;14.88;;;6.43;;
69953;SDS011;57276;51.364;12.376;2023-03-20T16:26:01;12.07;;;5.53;;
69953;SDS011;57276;51.364;12.376;2023-03-20T16:32:04;13.52;;;5.65;;
69953;SDS011;57276;51.364;12.376;2023-03-20T16:38:26;11.63;;;5.83;;
69953;SDS011;57276;51.364;12.376;2023-03-20T16:44:32;13.02;;;5.50;;
69953;SDS011;57276;51.364;12.376;2023-03-20T16:50:44;11.55;;;5.28;;
69953;SDS011;57276;51.364;12.376;2023-03-20T16:56:52;10.33;;;4.90;;
69953;SDS011;57276;51.364;12.376;2023-03-20T17:02:59;12.20;;;5.50;;
69953;SDS011;57276;51.364;12.376;2023-03-20T17:09:15;11.40;;;5.40;;
69953;SDS011;57276;51.364;12.376;2023-03-20T17:15:22;12.13;;;5.70;;
69953;SDS011;57276;51.364;12.376;2023-03-20T17:21:23;13.35;;;5.35;;
69953;SDS011;57276;51.364;12.376;2023-03-20T17:27:25;14.03;;;5.60;;
69953;SDS011;57276;51.364;12.376;2023-03-20T17:33:27;13.15;;;5.72;;
69953;SDS011;57276;51.364;12.376;2023-03-20T17:39:29;14.37;;;6.33;;
69953;SDS011;57276;51.364;12.376;2023-03-20T17:45:31;13.23;;;6.00;;
69953;SDS011;57276;51.364;12.376;2023-03-20T17:51:32;15.80;;;6.97;;
69953;SDS011;57276;51.364;12.376;2023-03-20T17:57:36;14.20;;;6.10;;
69953;SDS011;57276;51.364;12.376;2023-03-20T18:03:38;13.95;;;6.72;;
69953;SDS011;57276;51.364;12.376;2023-03-20T18:09:40;13.97;;;6.63;;
69953;SDS011;57276;51.364;12.376;2023-03-20T18:15:42;18.30;;;6.63;;
69953;SDS011;57276;51.364;12.376;2023-03-20T18:21:45;13.63;;;6.50;;
69953;SDS011;57276;51.364;12.376;2023-03-20T18:27:50;14.87;;;6.97;;
69953;SDS011;57276;51.364;12.376;2023-03-20T18:33:52;18.20;;;8.02;;
69953;SDS011;57276;51.364;12.376;2023-03-20T18:39:53;17.50;;;8.23;;
69953;SDS011;57276;51.364;12.376;2023-03-20T18:45:55;23.75;;;10.30;;
69953;SDS011;57276;51.364;12.376;2023-03-20T18:51:57;23.23;;;10.20;;
69953;SDS011;57276;51.364;12.376;2023-03-20T18:57:58;31.63;;;11.83;;
69953;SDS011;57276;51.364;12.376;2023-03-20T19:04:05;27.05;;;11.20;;
69953;SDS011;57276;51.364;12.376;2023-03-20T19:10:22;26.20;;;11.90;;
69953;SDS011;57276;51.364;12.376;2023-03-20T19:16:27;29.58;;;11.52;;
69953;SDS011;57276;51.364;12.376;2023-03-20T19:22:29;24.48;;;10.65;;
69953;SDS011;57276;51.364;12.376;2023-03-20T19:28:30;28.23;;;12.80;;
69953;SDS011;57276;51.364;12.376;2023-03-20T19:34:41;35.28;;;15.27;;
69953;SDS011;57276;51.364;12.376;2023-03-20T19:41:03;28.30;;;13.17;;
69953;SDS011;57276;51.364;12.376;2023-03-20T19:47:07;25.42;;;11.95;;
69953;SDS011;57276;51.364;12.376;2023-03-20T19:53:09;26.45;;;12.90;;
69953;SDS011;57276;51.364;12.376;2023-03-20T19:59:12;28.83;;;12.50;;
69953;SDS011;57276;51.364;12.376;2023-03-20T20:05:19;28.63;;;12.75;;
69953;SDS011;57276;51.364;12.376;2023-03-20T20:11:21;28.07;;;12.50;;
69953;SDS011;57276;51.364;12.376;2023-03-20T20:17:23;32.58;;;12.52;;
69953;SDS011;57276;51.364;12.376;2023-03-20T20:23:26;30.20;;;13.13;;
69953;SDS011;57276;51.364;12.376;2023-03-20T20:29:28;28.03;;;12.43;;
69953;SDS011;57276;51.364;12.376;2023-03-20T20:35:30;30.52;;;12.75;;
69953;SDS011;57276;51.364;12.376;2023-03-20T20:41:52;27.63;;;12.47;;
69953;SDS011;57276;51.364;12.376;2023-03-20T20:47:53;30.60;;;13.80;;
69953;SDS011;57276;51.364;12.376;2023-03-20T20:53:55;30.27;;;12.73;;
69953;SDS011;57276;51.364;12.376;2023-03-20T20:59:57;30.37;;;12.87;;
69953;SDS011;57276;51.364;12.376;2023-03-20T21:06:04;29.55;;;13.60;;
69953;SDS011;57276;51.364;12.376;2023-03-20T21:12:07;32.60;;;15.13;;
69953;SDS011;57276;51.364;12.376;2023-03-20T21:18:09;31.05;;;14.57;;
69953;SDS011;57276;51.364;12.376;2023-03-20T21:24:10;32.33;;;14.77;;
69953;SDS011;57276;51.364;12.376;2023-03-20T21:30:32;33.33;;;15.23;;
69953;SDS011;57276;51.364;12.376;2023-03-20T21:36:34;35.40;;;15.23;;
69953;SDS011;57276;51.364;12.376;2023-03-20T21:42:35;33.30;;;14.90;;
69953;SDS011;57276;51.364;12.376;2023-03-20T21:48:37;30.92;;;14.13;;
69953;SDS011;57276;51.364;12.376;2023-03-20T21:54:59;35.22;;;14.10;;
69953;SDS011;57276;51.364;12.376;2023-03-20T22:01:21;29.73;;;13.40;;
69953;SDS011;57276;51.364;12.376;2023-03-20T22:07:43;33.05;;;14.63;;
69953;SDS011;57276;51.364;12.376;2023-03-20T22:14:05;27.47;;;13.43;;
69953;SDS011;57276;51.364;12.376;2023-03-20T22:20:27;26.25;;;12.57;;
69953;SDS011;57276;51.364;12.376;2023-03-20T22:26:48;27.88;;;12.40;;
69953;SDS011;57276;51.364;12.376;2023-03-20T22:33:10;28.17;;;12.03;;
69953;SDS011;57276;51.364;12.376;2023-03-20T22:39:31;27.40;;;13.20;;
69953;SDS011;57276;51.364;12.376;2023-03-20T22:45:54;33.13;;;14.60;;
69953;SDS011;57276;51.364;12.376;2023-03-20T22:52:15;32.35;;;14.73;;
69953;SDS011;57276;51.364;12.376;2023-03-20T22:58:37;33.80;;;15.35;;
69953;SDS011;57276;51.364;12.376;2023-03-20T23:04:39;35.80;;;15.27;;
69953;SDS011;57276;51.364;12.376;2023-03-20T23:10:59;35.40;;;15.50;;
69953;SDS011;57276;51.364;12.376;2023-03-20T23:17:04;32.87;;;14.50;;
69953;SDS011;57276;51.364;12.376;2023-03-20T23:23:06;31.88;;;13.90;;
69953;SDS011;57276;51.364;12.376;2023-03-20T23:29:08;32.65;;;13.95;;
69953;SDS011;57276;51.364;12.376;2023-03-20T23:35:09;27.17;;;12.47;;
69953;SDS011;57276;51.364;12.376;2023-03-20T23:41:11;28.27;;;11.60;;
69953;SDS011;57276;51.364;12.376;2023-03-20T23:47:13;24.10;;;11.47;;
69953;SDS011;57276;51.364;12.376;2023-03-20T23:53:21;25.23;;;10.93;;
69953;SDS011;57276;51.364;12.376;2023-03-20T23:59:22;24.80;;;11.05;;
